createdAt,value
2023-01-26T00:01:37.472Z,102461.53
2023-01-26T00:04:05.564Z,102462.28
2023-01-26T00:06:32.968Z,102460.59
2023-01-26T00:09:00.216Z,102457.91
2023-01-26T00:11:29.768Z,102451.69
2023-01-26T00:13:58.684Z,102455.88
2023-01-26T00:16:27.469Z,102458.44
2023-01-26T00:18:55.077Z,102461.16
2023-01-26T00:21:24.066Z,102460.28
2023-01-26T00:23:52.480Z,102461.97
2023-01-26T00:26:24.880Z,102449.78
2023-01-26T00:28:53.401Z,102459.13
2023-01-26T00:31:24.168Z,102451.50
2023-01-26T00:33:56.942Z,102452.25
2023-01-26T00:36:24.718Z,102449.56
2023-01-26T00:38:54.515Z,102441.69
2023-01-26T00:41:43.304Z,102436.53
2023-01-26T00:44:10.643Z,102438.31
2023-01-26T00:46:38.348Z,102440.13
2023-01-26T00:49:07.763Z,102433.13
2023-01-26T00:51:34.990Z,102435.06
2023-01-26T00:54:04.771Z,102429.97
2023-01-26T00:56:32.377Z,102423.22
2023-01-26T00:58:59.725Z,102418.84
2023-01-26T01:01:27.011Z,102429.31
2023-01-26T01:03:54.527Z,102428.38
2023-01-26T01:06:21.921Z,102429.19
2023-01-26T01:08:51.299Z,102433.47
2023-01-26T01:11:18.622Z,102430.91
2023-01-26T01:13:46.332Z,102428.31
2023-01-26T01:16:16.686Z,102429.19
2023-01-26T01:18:44.339Z,102431.78
2023-01-26T01:21:15.322Z,102429.31
2023-01-26T01:23:43.728Z,102433.56
2023-01-26T01:26:11.618Z,102435.16
2023-01-26T01:28:39.405Z,102434.13
2023-01-26T01:31:10.965Z,102438.53
2023-01-26T01:33:38.797Z,102438.53
2023-01-26T01:36:10.319Z,102430.66
2023-01-26T01:38:37.788Z,102440.13
2023-01-26T01:41:05.587Z,102447.09
2023-01-26T01:43:33.451Z,102441.91
2023-01-26T01:46:03.272Z,102435.84
2023-01-26T01:48:43.330Z,102428.06
2023-01-26T01:51:37.281Z,102434.13
2023-01-26T01:54:10.929Z,102433.38
2023-01-26T01:56:44.154Z,102435.97
2023-01-26T01:59:13.274Z,102431.78
2023-01-26T02:01:42.061Z,102437.84
2023-01-26T02:04:10.068Z,102433.56
2023-01-26T02:06:46.272Z,102427.63
2023-01-26T02:09:34.793Z,102431.09
2023-01-26T02:12:07.327Z,102425.16
2023-01-26T02:14:34.747Z,102438.22
2023-01-26T02:17:02.036Z,102433.03
2023-01-26T02:19:41.455Z,102428.88
2023-01-26T02:22:24.093Z,102419.50
2023-01-26T02:24:56.964Z,102417.69
2023-01-26T02:27:24.916Z,102418.50
2023-01-26T02:29:54.329Z,102426.41
2023-01-26T02:32:21.706Z,102418.72
2023-01-26T02:34:56.189Z,102419.84
2023-01-26T02:37:24.488Z,102418.19
2023-01-26T02:40:07.609Z,102423.44
2023-01-26T02:42:42.170Z,102420.97
2023-01-26T02:45:16.184Z,102419.25
2023-01-26T02:47:45.469Z,102420.19
2023-01-26T02:50:13.971Z,102411.59
2023-01-26T02:52:43.625Z,102413.53
2023-01-26T02:55:27.393Z,102424.00
2023-01-26T02:58:00.919Z,102415.31
2023-01-26T03:00:37.366Z,102411.97
2023-01-26T03:03:13.788Z,102416.34
2023-01-26T03:05:41.483Z,102412.16
2023-01-26T03:08:08.837Z,102414.75
2023-01-26T03:10:38.033Z,102410.59
2023-01-26T03:13:07.434Z,102411.50
2023-01-26T03:15:43.943Z,102420.16
2023-01-26T03:18:34.403Z,102409.94
2023-01-26T03:21:22.281Z,102421.19
2023-01-26T03:24:08.489Z,102410.94
2023-01-26T03:26:56.081Z,102413.53
2023-01-26T03:29:23.657Z,102417.00
2023-01-26T03:31:53.358Z,102415.53
2023-01-26T03:34:21.268Z,102409.66
2023-01-26T03:36:49.455Z,102418.56
2023-01-26T03:39:37.077Z,102421.16
2023-01-26T03:42:23.490Z,102415.31
2023-01-26T03:45:10.408Z,102413.72
2023-01-26T03:47:59.326Z,102407.63
2023-01-26T03:50:45.860Z,102414.38
2023-01-26T03:53:37.555Z,102426.56
2023-01-26T03:56:22.020Z,102409.19
2023-01-26T03:58:53.183Z,102405.84
2023-01-26T04:01:28.900Z,102417.09
2023-01-26T04:04:17.674Z,102413.59
2023-01-26T04:07:07.681Z,102412.81
2023-01-26T04:09:41.863Z,102405.94
2023-01-26T04:12:11.957Z,102411.91
2023-01-26T04:15:07.644Z,102404.94
2023-01-26T04:17:53.452Z,102411.78
2023-01-26T04:20:39.450Z,102409.19
2023-01-26T04:23:06.795Z,102400.88
2023-01-26T04:25:35.962Z,102400.97
2023-01-26T04:28:03.221Z,102395.91
2023-01-26T04:30:30.952Z,102398.50
2023-01-26T04:32:59.388Z,102394.31
2023-01-26T04:35:26.868Z,102396.13
2023-01-26T04:37:54.717Z,102392.72
2023-01-26T04:40:23.283Z,102385.88
2023-01-26T04:42:50.601Z,102391.94
2023-01-26T04:45:18.042Z,102388.66
2023-01-26T04:47:46.073Z,102388.06
2023-01-26T04:50:16.103Z,102379.63
2023-01-26T04:52:45.115Z,102380.63
2023-01-26T04:55:12.551Z,102384.25
2023-01-26T04:57:42.660Z,102382.75
2023-01-26T05:00:12.439Z,102384.53
2023-01-26T05:02:41.054Z,102380.28
2023-01-26T05:05:10.820Z,102376.69
2023-01-26T05:07:38.407Z,102375.75
2023-01-26T05:10:06.213Z,102377.47
2023-01-26T05:12:43.224Z,102384.53
2023-01-26T05:15:28.612Z,102382.97
2023-01-26T05:18:07.308Z,102383.06
2023-01-26T05:20:53.848Z,102376.22
2023-01-26T05:23:26.853Z,102370.22
2023-01-26T05:26:26.361Z,102380.59
2023-01-26T05:29:04.225Z,102374.63
2023-01-26T05:31:32.966Z,102368.75
2023-01-26T05:34:00.293Z,102365.38
2023-01-26T05:36:27.909Z,102375.81
2023-01-26T05:38:55.835Z,102374.22
2023-01-26T05:41:27.579Z,102376.16
2023-01-26T05:44:10.887Z,102391.91
2023-01-26T05:46:52.062Z,102386.72
2023-01-26T05:49:19.615Z,102382.53
2023-01-26T05:51:47.504Z,102398.22
2023-01-26T05:54:15.756Z,102395.72
2023-01-26T05:56:43.110Z,102392.34
2023-01-26T05:59:10.498Z,102401.13
2023-01-26T06:01:39.580Z,102395.94
2023-01-26T06:04:08.644Z,102413.28
2023-01-26T06:06:43.007Z,102411.63
2023-01-26T06:09:37.026Z,102406.44
2023-01-26T06:12:18.168Z,102409.03
2023-01-26T06:15:00.542Z,102411.50
2023-01-26T06:17:35.764Z,102406.31
2023-01-26T06:20:07.254Z,102409.81
2023-01-26T06:22:40.648Z,102409.69
2023-01-26T06:25:08.534Z,102403.72
2023-01-26T06:27:36.330Z,102399.75
2023-01-26T06:30:11.886Z,102408.38
2023-01-26T06:32:41.034Z,102407.44
2023-01-26T06:35:08.900Z,102400.41
2023-01-26T06:37:36.882Z,102402.63
2023-01-26T06:40:06.095Z,102400.75
2023-01-26T06:42:35.087Z,102406.16
2023-01-26T06:45:02.668Z,102414.47
2023-01-26T06:48:01.273Z,102414.69
2023-01-26T06:50:34.010Z,102416.16
2023-01-26T06:53:04.534Z,102413.19
2023-01-26T06:55:46.096Z,102422.44
2023-01-26T06:58:34.361Z,102411.47
2023-01-26T07:01:22.839Z,102426.41
2023-01-26T07:03:51.590Z,102425.78
2023-01-26T07:06:19.202Z,102423.16
2023-01-26T07:08:47.010Z,102424.94
2023-01-26T07:11:17.095Z,102434.38
2023-01-26T07:13:44.408Z,102436.00
2023-01-26T07:16:14.720Z,102429.81
2023-01-26T07:18:42.648Z,102441.06
2023-01-26T07:21:13.002Z,102445.25
2023-01-26T07:23:43.036Z,102445.88
2023-01-26T07:26:15.654Z,102453.53
2023-01-26T07:28:43.113Z,102456.81
2023-01-26T07:31:12.005Z,102467.97
2023-01-26T07:33:42.000Z,102471.38
2023-01-26T07:36:11.350Z,102473.91
2023-01-26T07:38:39.014Z,102481.63
2023-01-26T07:41:10.206Z,102472.91
2023-01-26T07:43:39.023Z,102480.63
2023-01-26T07:46:10.837Z,102481.41
2023-01-26T07:48:38.996Z,102484.00
2023-01-26T07:51:09.222Z,102479.63
2023-01-26T07:53:41.615Z,102475.31
2023-01-26T07:56:16.059Z,102488.34
2023-01-26T07:58:43.373Z,102485.84
2023-01-26T08:01:14.777Z,102488.53
2023-01-26T08:03:42.669Z,102486.19
2023-01-26T08:06:12.447Z,102486.38
2023-01-26T08:08:42.654Z,102489.97
2023-01-26T08:11:11.737Z,102488.38
2023-01-26T08:13:39.319Z,102489.97
2023-01-26T08:16:12.939Z,102496.88
2023-01-26T08:18:44.339Z,102491.59
2023-01-26T08:21:13.385Z,102495.81
2023-01-26T08:23:42.402Z,102495.72
2023-01-26T08:26:15.801Z,102500.00
2023-01-26T08:28:43.431Z,102497.34
2023-01-26T08:31:14.075Z,102499.75
2023-01-26T08:33:42.728Z,102497.84
2023-01-26T08:36:15.773Z,102500.47
2023-01-26T08:38:43.608Z,102503.22
2023-01-26T08:41:12.066Z,102497.34
2023-01-26T08:43:39.858Z,102488.06
2023-01-26T08:46:09.910Z,102483.31
2023-01-26T08:48:37.558Z,102487.31
2023-01-26T08:51:07.003Z,102485.06
2023-01-26T08:53:37.984Z,102498.44
2023-01-26T08:56:07.779Z,102497.22
2023-01-26T08:58:36.041Z,102500.28
2023-01-26T09:01:07.190Z,102496.31
2023-01-26T09:03:35.563Z,102497.66
2023-01-26T09:06:04.783Z,102500.63
2023-01-26T09:08:32.704Z,102495.75
2023-01-26T09:11:06.285Z,102502.25
2023-01-26T09:13:33.766Z,102501.59
2023-01-26T09:16:04.769Z,102499.25
2023-01-26T09:18:32.421Z,102501.38
2023-01-26T09:21:04.512Z,102506.06
2023-01-26T09:23:33.690Z,102502.91
2023-01-26T09:26:01.267Z,102512.88
2023-01-26T09:28:29.488Z,102505.28
2023-01-26T09:30:57.136Z,102511.75
2023-01-26T09:33:25.390Z,102514.63
2023-01-26T09:35:52.676Z,102515.78
2023-01-26T09:38:20.248Z,102502.09
2023-01-26T09:41:33.276Z,102510.34
2023-01-26T09:44:05.751Z,102523.56
2023-01-26T09:46:58.185Z,102522.16
2023-01-26T09:50:12.485Z,102519.09
2023-01-26T09:52:53.790Z,102529.84
2023-01-26T09:55:23.104Z,102537.22
2023-01-26T09:57:56.788Z,102532.31
2023-01-26T10:00:48.927Z,102528.50
2023-01-26T10:03:43.838Z,102521.78
2023-01-26T10:06:31.844Z,102535.91
2023-01-26T10:09:37.243Z,102517.06
2023-01-26T10:12:28.525Z,102525.16
2023-01-26T10:15:07.199Z,102510.69
2023-01-26T10:17:39.286Z,102514.63
2023-01-26T10:20:22.841Z,102507.97
2023-01-26T10:22:57.596Z,102517.03
2023-01-26T10:25:41.042Z,102507.78
2023-01-26T10:28:20.793Z,102514.22
2023-01-26T10:30:49.368Z,102515.34
2023-01-26T10:33:37.260Z,102512.13
2023-01-26T10:36:10.865Z,102516.78
2023-01-26T10:38:38.191Z,102511.88
2023-01-26T10:41:09.979Z,102511.19
2023-01-26T10:43:42.587Z,102518.28
2023-01-26T10:46:38.228Z,102508.97
2023-01-26T10:49:16.390Z,102518.75
2023-01-26T10:51:46.558Z,102506.72
2023-01-26T10:54:24.151Z,102506.03
2023-01-26T10:56:55.238Z,102508.84
2023-01-26T10:59:39.127Z,102522.06
2023-01-26T11:02:12.887Z,102520.66
2023-01-26T11:04:42.219Z,102509.59
2023-01-26T11:07:26.575Z,102512.41
2023-01-26T11:09:55.107Z,102500.38
2023-01-26T11:12:25.819Z,102511.00
2023-01-26T11:15:21.172Z,102515.53
2023-01-26T11:18:03.482Z,102514.13
2023-01-26T11:20:49.276Z,102504.00
2023-01-26T11:23:39.095Z,102508.56
2023-01-26T11:26:31.609Z,102505.19
2023-01-26T11:29:29.928Z,102496.34
2023-01-26T11:32:32.754Z,102506.84
2023-01-26T11:35:31.667Z,102506.91
2023-01-26T11:38:16.216Z,102507.03
2023-01-26T11:40:51.432Z,102492.09
2023-01-26T11:43:21.390Z,102492.84
2023-01-26T11:46:01.727Z,102491.94
2023-01-26T11:48:53.916Z,102486.03
2023-01-26T11:51:36.363Z,102481.84
2023-01-26T11:55:02.106Z,102480.84
2023-01-26T11:57:43.723Z,102481.97
2023-01-26T12:00:30.217Z,102483.84
2023-01-26T12:03:19.975Z,102489.09
2023-01-26T12:05:53.498Z,102477.84
2023-01-26T12:08:29.556Z,102478.00
2023-01-26T12:11:19.640Z,102472.31
2023-01-26T12:14:00.081Z,102466.59
2023-01-26T12:16:45.428Z,102466.78
2023-01-26T12:19:25.813Z,102467.75
2023-01-26T12:21:57.619Z,102465.84
2023-01-26T12:25:05.018Z,102457.09
2023-01-26T12:27:58.344Z,102459.72
2023-01-26T12:30:28.819Z,102456.06
2023-01-26T12:32:56.323Z,102462.94
2023-01-26T12:35:44.724Z,102455.09
2023-01-26T12:38:33.755Z,102451.50
2023-01-26T12:41:10.642Z,102451.38
2023-01-26T12:43:37.942Z,102456.44
2023-01-26T12:46:08.019Z,102452.06
2023-01-26T12:48:46.419Z,102441.34
2023-01-26T12:51:31.107Z,102443.78
2023-01-26T12:54:16.136Z,102444.47
2023-01-26T12:56:50.221Z,102440.81
2023-01-26T12:59:46.828Z,102444.13
2023-01-26T13:02:16.350Z,102429.84
2023-01-26T13:04:47.959Z,102429.84
2023-01-26T13:07:36.626Z,102429.78
2023-01-26T13:10:25.910Z,102429.03
2023-01-26T13:12:57.898Z,102417.63
2023-01-26T13:15:31.738Z,102419.38
2023-01-26T13:18:01.365Z,102420.34
2023-01-26T13:20:29.858Z,102417.88
2023-01-26T13:22:57.053Z,102426.63
2023-01-26T13:25:33.101Z,102419.53
2023-01-26T13:28:02.966Z,102425.56
2023-01-26T13:30:40.359Z,102416.75
2023-01-26T13:33:24.924Z,102422.69
2023-01-26T13:35:55.320Z,102415.53
2023-01-26T13:38:37.466Z,102409.25
2023-01-26T13:41:16.045Z,102416.94
2023-01-26T13:44:05.148Z,102423.84
2023-01-26T13:46:41.049Z,102415.09
2023-01-26T13:49:39.660Z,102411.53
2023-01-26T13:52:22.988Z,102411.53
2023-01-26T13:54:52.597Z,102411.53
2023-01-26T13:57:24.491Z,102419.44
2023-01-26T13:59:54.249Z,102415.03
2023-01-26T14:02:25.292Z,102429.00
2023-01-26T14:04:55.676Z,102418.53
2023-01-26T14:07:27.009Z,102426.38
2023-01-26T14:09:57.303Z,102417.56
2023-01-26T14:12:45.655Z,102423.72
2023-01-26T14:15:29.187Z,102437.63
2023-01-26T14:17:59.729Z,102432.31
2023-01-26T14:20:32.039Z,102429.69
2023-01-26T14:23:13.699Z,102432.47
2023-01-26T14:25:44.912Z,102430.66
2023-01-26T14:28:17.455Z,102426.25
2023-01-26T14:30:51.178Z,102430.53
2023-01-26T14:33:18.807Z,102418.19
2023-01-26T14:36:00.996Z,102431.13
2023-01-26T14:38:29.964Z,102429.19
2023-01-26T14:40:59.708Z,102421.28
2023-01-26T14:43:27.915Z,102420.31
2023-01-26T14:46:10.032Z,102423.66
2023-01-26T14:48:46.836Z,102419.97
2023-01-26T14:51:23.276Z,102424.13
2023-01-26T14:54:03.735Z,102430.84
2023-01-26T14:56:38.630Z,102438.44
2023-01-26T14:59:10.665Z,102430.41
2023-01-26T15:01:38.668Z,102425.84
2023-01-26T15:04:19.228Z,102427.41
2023-01-26T15:06:46.493Z,102431.59
2023-01-26T15:09:25.439Z,102432.28
2023-01-26T15:12:18.171Z,102431.31
2023-01-26T15:14:45.459Z,102437.22
2023-01-26T15:17:33.564Z,102436.09
2023-01-26T15:20:02.292Z,102442.78
2023-01-26T15:22:29.813Z,102431.94
2023-01-26T15:25:17.705Z,102438.63
2023-01-26T15:27:53.808Z,102443.47
2023-01-26T15:30:28.706Z,102436.13
2023-01-26T15:32:56.501Z,102447.97
2023-01-26T15:35:33.278Z,102446.81
2023-01-26T15:38:10.026Z,102443.81
2023-01-26T15:40:37.854Z,102444.41
2023-01-26T15:43:25.099Z,102451.16
2023-01-26T15:45:55.576Z,102454.41
2023-01-26T15:48:24.477Z,102455.03
2023-01-26T15:50:52.035Z,102453.06
2023-01-26T15:53:21.936Z,102462.38
2023-01-26T15:55:56.498Z,102457.00
2023-01-26T15:58:24.931Z,102461.16
2023-01-26T16:00:55.112Z,102456.59
2023-01-26T16:03:22.738Z,102455.53
2023-01-26T16:05:50.165Z,102460.59
2023-01-26T16:08:18.334Z,102470.88
2023-01-26T16:10:47.029Z,102457.56
2023-01-26T16:13:19.648Z,102466.13
2023-01-26T16:15:50.011Z,102459.84
2023-01-26T16:18:18.081Z,102464.97
2023-01-26T16:20:47.392Z,102464.81
2023-01-26T16:23:17.555Z,102463.81
2023-01-26T16:25:44.925Z,102463.75
2023-01-26T16:28:12.567Z,102463.75
2023-01-26T16:30:40.231Z,102470.75
2023-01-26T16:33:07.547Z,102469.88
2023-01-26T16:35:35.834Z,102485.53
2023-01-26T16:38:04.232Z,102485.53
2023-01-26T16:40:31.861Z,102482.84
2023-01-26T16:42:59.450Z,102488.94
2023-01-26T16:45:27.220Z,102487.16
2023-01-26T16:47:57.965Z,102487.97
2023-01-26T16:50:25.899Z,102486.97
2023-01-26T16:52:53.527Z,102486.81
2023-01-26T16:55:23.488Z,102479.72
2023-01-26T16:57:50.932Z,102490.06
2023-01-26T17:00:28.440Z,102482.13
2023-01-26T17:02:56.926Z,102498.72
2023-01-26T17:05:26.846Z,102490.81
2023-01-26T17:07:54.398Z,102487.31
2023-01-26T17:10:24.134Z,102489.00
2023-01-26T17:12:51.550Z,102482.88
2023-01-26T17:15:18.963Z,102485.50
2023-01-26T17:17:49.743Z,102485.50
2023-01-26T17:20:19.619Z,102483.72
2023-01-26T17:22:47.887Z,102487.03
2023-01-26T17:25:17.396Z,102483.53
2023-01-26T17:27:46.675Z,102487.84
2023-01-26T17:30:14.383Z,102492.25
2023-01-26T17:32:42.431Z,102491.25
2023-01-26T17:35:10.054Z,102495.59
2023-01-26T17:37:38.226Z,102493.78
2023-01-26T17:40:06.999Z,102491.91
2023-01-26T17:42:35.197Z,102501.47
2023-01-26T17:45:04.190Z,102501.28
2023-01-26T17:47:33.573Z,102507.22
2023-01-26T17:50:01.752Z,102506.94
2023-01-26T17:52:31.518Z,102498.97
2023-01-26T17:54:59.103Z,102511.03
2023-01-26T17:57:26.399Z,102506.50
2023-01-26T17:59:53.909Z,102507.25
2023-01-26T18:02:21.268Z,102506.25
2023-01-26T18:04:48.867Z,102510.50
2023-01-26T18:07:16.248Z,102515.63
2023-01-26T18:09:43.598Z,102513.72
2023-01-26T18:12:10.887Z,102515.34
2023-01-26T18:14:39.047Z,102515.28
2023-01-26T18:17:06.421Z,102521.28
2023-01-26T18:19:34.282Z,102519.56
2023-01-26T18:22:01.567Z,102521.38
2023-01-26T18:24:28.895Z,102517.78
2023-01-26T18:26:56.298Z,102522.13
2023-01-26T18:29:23.630Z,102522.00
2023-01-26T18:31:51.279Z,102521.09
2023-01-26T18:34:19.028Z,102521.03
2023-01-26T18:36:46.276Z,102517.50
2023-01-26T18:39:14.919Z,102523.63
2023-01-26T18:41:43.649Z,102519.41
2023-01-26T18:44:10.994Z,102523.00
2023-01-26T18:46:38.773Z,102526.41
2023-01-26T18:49:06.287Z,102526.31
2023-01-26T18:51:35.676Z,102530.63
2023-01-26T18:54:05.018Z,102529.75
2023-01-26T18:56:32.548Z,102541.78
2023-01-26T18:59:00.198Z,102525.16
2023-01-26T19:01:27.657Z,102539.00
2023-01-26T19:03:55.697Z,102526.69
2023-01-26T19:06:26.612Z,102546.66
2023-01-26T19:09:00.984Z,102541.34
2023-01-26T19:11:32.338Z,102535.22
2023-01-26T19:14:00.901Z,102536.94
2023-01-26T19:16:29.194Z,102543.03
2023-01-26T19:18:56.948Z,102552.56
2023-01-26T19:21:27.660Z,102542.13
2023-01-26T19:23:58.782Z,102535.16
2023-01-26T19:26:30.837Z,102541.06
2023-01-26T19:28:59.401Z,102547.00
2023-01-26T19:31:27.888Z,102539.91
2023-01-26T19:33:58.040Z,102541.44
2023-01-26T19:36:26.979Z,102543.06
2023-01-26T19:38:54.477Z,102546.25
2023-01-26T19:41:22.355Z,102553.81
2023-01-26T19:43:50.546Z,102558.81
2023-01-26T19:46:20.313Z,102553.44
2023-01-26T19:48:47.818Z,102547.16
2023-01-26T19:51:22.806Z,102556.59
2023-01-26T19:53:53.513Z,102553.00
2023-01-26T19:56:23.250Z,102555.41
2023-01-26T19:58:53.031Z,102553.59
2023-01-26T20:01:21.452Z,102555.41
2023-01-26T20:04:04.370Z,102558.78
2023-01-26T20:06:33.966Z,102559.72
2023-01-26T20:09:03.484Z,102558.09
2023-01-26T20:11:30.908Z,102563.31
2023-01-26T20:14:01.144Z,102566.91
2023-01-26T20:16:29.490Z,102569.63
2023-01-26T20:18:59.349Z,102575.72
2023-01-26T20:21:27.545Z,102577.44
2023-01-26T20:23:56.109Z,102587.03
2023-01-26T20:26:26.217Z,102578.41
2023-01-26T20:28:56.920Z,102580.31
2023-01-26T20:31:26.400Z,102581.13
2023-01-26T20:33:53.800Z,102582.75
2023-01-26T20:36:25.042Z,102583.53
2023-01-26T20:38:55.403Z,102594.69
2023-01-26T20:41:29.339Z,102592.66
2023-01-26T20:44:01.622Z,102589.88
2023-01-26T20:46:39.911Z,102594.00
2023-01-26T20:49:10.194Z,102603.34
2023-01-26T20:51:39.857Z,102604.94
2023-01-26T20:54:07.708Z,102606.56
2023-01-26T20:56:35.941Z,102610.88
2023-01-26T20:59:04.517Z,102612.50
2023-01-26T21:01:34.661Z,102608.16
2023-01-26T21:04:02.908Z,102609.94
2023-01-26T21:06:30.427Z,102609.25
2023-01-26T21:08:59.863Z,102616.34
2023-01-26T21:11:30.394Z,102612.13
2023-01-26T21:14:00.651Z,102611.41
2023-01-26T21:16:29.505Z,102611.63
2023-01-26T21:18:56.893Z,102619.53
2023-01-26T21:21:24.275Z,102614.44
2023-01-26T21:23:51.839Z,102620.53
2023-01-26T21:26:22.416Z,102625.84
2023-01-26T21:28:54.222Z,102621.53
2023-01-26T21:31:25.357Z,102642.47
2023-01-26T21:33:54.383Z,102630.31
2023-01-26T21:36:24.241Z,102631.31
2023-01-26T21:38:53.274Z,102631.41
2023-01-26T21:41:44.783Z,102633.22
2023-01-26T21:44:33.318Z,102619.38
2023-01-26T21:47:04.418Z,102627.31
2023-01-26T21:49:31.913Z,102624.69
2023-01-26T21:52:18.477Z,102630.78
2023-01-26T21:54:45.777Z,102621.31
2023-01-26T21:57:31.664Z,102621.19
2023-01-26T22:00:05.482Z,102642.94
2023-01-26T22:02:33.785Z,102637.72
2023-01-26T22:05:01.209Z,102641.22
2023-01-26T22:07:30.024Z,102643.94
2023-01-26T22:09:57.368Z,102641.31
2023-01-26T22:12:25.049Z,102645.75
2023-01-26T22:14:52.612Z,102658.78
2023-01-26T22:17:19.965Z,102650.75
2023-01-26T22:19:47.294Z,102655.16
2023-01-26T22:22:14.749Z,102665.59
2023-01-26T22:24:42.184Z,102650.84
2023-01-26T22:27:11.802Z,102652.56
2023-01-26T22:29:39.489Z,102656.06
2023-01-26T22:32:07.008Z,102656.94
2023-01-26T22:34:34.485Z,102670.88
2023-01-26T22:37:01.925Z,102669.19
2023-01-26T22:39:29.193Z,102670.97
2023-01-26T22:41:56.454Z,102676.19
2023-01-26T22:44:25.150Z,102674.41
2023-01-26T22:46:52.766Z,102675.28
2023-01-26T22:49:20.044Z,102675.28
2023-01-26T22:51:47.598Z,102684.09
2023-01-26T22:54:14.895Z,102678.78
2023-01-26T22:56:42.207Z,102678.78
2023-01-26T22:59:09.913Z,102691.81
2023-01-26T23:01:37.582Z,102687.50
2023-01-26T23:04:05.334Z,102693.63
2023-01-26T23:06:32.918Z,102693.63
2023-01-26T23:09:02.793Z,102700.53
2023-01-26T23:11:31.217Z,102691.81
2023-01-26T23:13:59.280Z,102695.31
2023-01-26T23:16:27.835Z,102696.25
2023-01-26T23:18:57.148Z,102704.84
2023-01-26T23:21:25.776Z,102704.84
2023-01-26T23:23:53.498Z,102703.97
2023-01-26T23:26:21.214Z,102718.78
2023-01-26T23:28:48.813Z,102710.88
2023-01-26T23:31:19.813Z,102714.06
2023-01-26T23:33:47.468Z,102720.72
2023-01-26T23:36:15.626Z,102714.53
2023-01-26T23:38:45.668Z,102717.03
2023-01-26T23:41:13.480Z,102707.38
2023-01-26T23:43:40.824Z,102703.91
2023-01-26T23:46:09.515Z,102707.28
2023-01-26T23:48:37.230Z,102707.28
2023-01-26T23:51:07.507Z,102722.13
2023-01-26T23:53:35.069Z,102707.28
2023-01-26T23:56:13.727Z,102709.88
2023-01-26T23:58:41.281Z,102710.81
